KAAF/AAF METAR and TAF weather

Enter ICAO airport designator
Station Type Date Time Source
KAAF METAR 2022/09/26 07:53 UTC NOAA

KAAF 260753Z AUTO 00000KT 10SM CLR 22/22 A2988 RMK AO2 SLP119 T02220217


Station Type Date Time Source
KAAF Decoded METAR 2022/09/26 07:53 UTC NOAA

APALACHICOLA MUNICIPAL AIRPORT, FL, United States (KAAF) 29-44N 085-01W 5M
Sep 26, 2022 - 03:53 AM EDT / 2022.09.26 0753 UTC
Wind: Calm:0
Visibility: 10 mile(s):0
Sky conditions: clear
Temperature: 72.0 F (22.2 C)
Dew Point: 71.1 F (21.7 C)
Relative Humidity: 96%
Pressure (altimeter): 29.88 in. Hg (1011 hPa)
ob: KAAF 260753Z AUTO 00000KT 10SM CLR 22/22 A2988 RMK AO2 SLP119 T02220217
cycle: 8

Station Type Date Time Source
KAAF TAF UTC NOAA

Error!

Example: see airport list